Time;durP1;ratioP1;P1;durP2;ratioP2;P2;SDS_P1;SDS_P2;PMS_P1;PMS_P2;Temp;Humidity;BMP_temperature;BMP_pressure;BME280_temperature;BME280_humidity;BME280_pressure;Samples;Min_cycle;Max_cycle;Signal;HPM_P1;HPM_P2
2023/11/25 00:02:13;;;;;;;4.40;3.00;;;6.00;99.90;;;;;;10313744;28;20195;-78
2023/11/25 00:07:15;;;;;;;5.30;4.13;;;5.90;99.90;;;;;;10320955;28;20223;-78
2023/11/25 00:12:19;;;;;;;3.23;2.93;;;5.90;99.90;;;;;;10312066;28;20659;-79
2023/11/25 00:17:22;;;;;;;2.80;2.60;;;5.80;99.90;;;;;;10315427;28;20242;-79
2023/11/25 00:22:25;;;;;;;6.00;3.60;;;5.80;99.90;;;;;;10311005;28;20207;-78
2023/11/25 00:27:29;;;;;;;5.03;3.50;;;5.70;99.90;;;;;;10319915;28;20223;-79
2023/11/25 00:32:36;;;;;;;5.87;2.60;;;5.70;99.90;;;;;;10302796;28;20222;-78
2023/11/25 00:37:40;;;;;;;4.30;2.90;;;5.70;99.90;;;;;;10317401;28;20775;-77
2023/11/25 00:42:46;;;;;;;4.10;2.77;;;5.70;99.90;;;;;;10309965;28;20294;-78
2023/11/25 00:47:48;;;;;;;5.67;2.67;;;5.70;99.90;;;;;;10325768;28;20234;-78
2023/11/25 00:52:51;;;;;;;3.47;2.50;;;5.70;99.90;;;;;;10301988;28;20199;-78
2023/11/25 00:57:55;;;;;;;3.20;2.90;;;5.80;99.90;;;;;;10305004;28;20219;-78
2023/11/25 01:02:57;;;;;;;3.27;2.33;;;5.90;99.90;;;;;;10305027;28;20207;-78
2023/11/25 01:07:59;;;;;;;3.00;2.50;;;6.00;99.90;;;;;;10306640;28;20219;-79
2023/11/25 01:13:03;;;;;;;3.87;2.37;;;6.00;99.90;;;;;;10325208;28;20203;-78
2023/11/25 01:18:05;;;;;;;3.50;2.17;;;6.00;99.90;;;;;;10311863;28;20219;-77
2023/11/25 01:23:08;;;;;;;2.00;1.90;;;6.00;99.90;;;;;;10307969;28;20192;-78
2023/11/25 01:28:11;;;;;;;2.60;2.20;;;6.00;99.90;;;;;;10303796;28;20215;-78
2023/11/25 01:33:14;;;;;;;2.70;2.07;;;6.00;99.90;;;;;;10311317;28;20187;-78
2023/11/25 01:38:18;;;;;;;4.67;2.10;;;5.90;99.90;;;;;;10310241;28;20242;-78
2023/11/25 01:43:23;;;;;;;2.37;2.17;;;5.90;99.90;;;;;;10326953;28;20611;-78
2023/11/25 01:48:28;;;;;;;3.73;2.23;;;5.90;99.90;;;;;;10332801;28;20209;-78
2023/11/25 01:53:32;;;;;;;4.03;2.03;;;5.80;99.90;;;;;;10319001;28;20204;-78
2023/11/25 01:58:38;;;;;;;3.00;2.13;;;5.80;99.90;;;;;;10286233;28;20223;-78
2023/11/25 02:03:41;;;;;;;3.30;2.13;;;5.80;99.90;;;;;;10301913;28;20227;-78
2023/11/25 02:08:45;;;;;;;2.87;2.50;;;5.90;99.90;;;;;;10323859;28;20569;-78
2023/11/25 02:13:48;;;;;;;4.30;2.23;;;5.90;99.90;;;;;;10324679;28;20215;-78
2023/11/25 02:18:51;;;;;;;3.67;2.53;;;5.90;99.90;;;;;;10314825;28;20219;-78
2023/11/25 02:23:55;;;;;;;2.53;2.33;;;5.90;99.90;;;;;;10304912;28;20230;-78
2023/11/25 02:28:58;;;;;;;5.30;3.53;;;5.90;99.90;;;;;;10322312;28;20635;-78
2023/11/25 02:34:00;;;;;;;3.67;2.50;;;5.90;99.90;;;;;;10322011;28;20219;-78
2023/11/25 02:39:04;;;;;;;3.10;2.70;;;5.80;99.90;;;;;;10323236;28;20230;-78
2023/11/25 02:44:07;;;;;;;2.63;2.43;;;5.80;99.90;;;;;;10322926;28;20223;-78
2023/11/25 02:49:10;;;;;;;4.43;2.93;;;5.60;99.90;;;;;;10315329;28;20223;-78
2023/11/25 02:54:14;;;;;;;3.60;2.30;;;5.60;99.90;;;;;;10319198;28;20215;-78
2023/11/25 02:59:17;;;;;;;4.43;2.80;;;5.50;99.90;;;;;;10302511;28;20219;-78
2023/11/25 03:04:20;;;;;;;4.33;2.93;;;5.50;99.90;;;;;;10289257;28;20219;-78
2023/11/25 03:09:25;;;;;;;4.80;2.83;;;5.50;99.90;;;;;;10301648;28;20215;-78
2023/11/25 03:14:28;;;;;;;3.03;2.70;;;5.50;99.90;;;;;;10319997;28;20231;-78
2023/11/25 03:19:30;;;;;;;4.60;2.30;;;5.50;99.90;;;;;;10315621;28;20289;-78
2023/11/25 03:24:34;;;;;;;3.93;2.63;;;5.60;99.90;;;;;;10314458;28;20215;-78
2023/11/25 03:29:36;;;;;;;4.37;3.30;;;5.70;99.90;;;;;;10297757;28;20191;-78
2023/11/25 03:34:39;;;;;;;4.00;2.70;;;5.70;99.90;;;;;;10295740;28;20265;-78
2023/11/25 03:39:44;;;;;;;4.70;3.00;;;5.80;99.90;;;;;;10294736;28;20211;-78
2023/11/25 03:44:46;;;;;;;4.87;2.80;;;5.80;99.90;;;;;;10295672;28;20226;-78
2023/11/25 03:49:48;;;;;;;3.80;2.90;;;5.80;99.90;;;;;;10295497;28;20204;-78
2023/11/25 03:54:53;;;;;;;5.43;3.10;;;5.90;99.90;;;;;;10309993;28;20582;-78
2023/11/25 03:59:55;;;;;;;3.90;3.50;;;5.90;99.90;;;;;;10293115;28;20245;-78
2023/11/25 04:04:57;;;;;;;2.60;2.40;;;5.90;99.90;;;;;;10310567;28;20223;-78
2023/11/25 04:10:12;;;;;;;3.90;2.70;;;5.90;99.90;;;;;;10292763;28;20204;-78
2023/11/25 04:15:19;;;;;;;3.33;2.77;;;5.90;99.90;;;;;;10293014;28;20216;-78
2023/11/25 04:20:27;;;;;;;3.70;2.43;;;5.90;99.90;;;;;;10310200;28;20224;-78
2023/11/25 04:25:32;;;;;;;3.27;2.80;;;5.90;99.90;;;;;;10293669;28;20214;-78
2023/11/25 04:30:34;;;;;;;4.90;2.80;;;5.90;99.90;;;;;;10290779;28;20200;-78
2023/11/25 04:35:37;;;;;;;3.87;2.60;;;5.90;99.90;;;;;;10305671;28;20231;-78
2023/11/25 04:40:41;;;;;;;4.87;2.20;;;5.80;99.90;;;;;;10309541;28;20219;-78
2023/11/25 04:45:43;;;;;;;7.27;3.13;;;5.80;99.90;;;;;;10301515;28;20227;-78
2023/11/25 04:50:46;;;;;;;5.23;2.63;;;5.80;99.90;;;;;;10324395;28;20553;-78
2023/11/25 04:55:50;;;;;;;4.67;2.57;;;5.80;99.90;;;;;;10295844;28;20228;-78
2023/11/25 05:00:54;;;;;;;4.20;3.20;;;5.70;99.90;;;;;;10279296;28;20822;-78
2023/11/25 05:05:56;;;;;;;7.30;2.67;;;5.70;99.90;;;;;;10303848;28;20298;-78
2023/11/25 05:11:00;;;;;;;3.77;2.50;;;5.60;99.90;;;;;;10306331;28;20228;-78
2023/11/25 05:16:03;;;;;;;8.40;2.63;;;5.60;99.90;;;;;;10302697;28;20227;-77
2023/11/25 05:21:07;;;;;;;3.63;2.33;;;5.50;99.90;;;;;;10308920;28;20598;-78
2023/11/25 05:26:12;;;;;;;5.07;1.90;;;5.50;99.90;;;;;;10302792;28;20227;-78
2023/11/25 05:31:15;;;;;;;3.70;2.40;;;5.40;99.90;;;;;;10284266;28;20196;-78
2023/11/25 05:36:17;;;;;;;2.07;1.97;;;5.40;99.90;;;;;;10300357;28;20212;-78
2023/11/25 05:41:22;;;;;;;5.63;2.40;;;5.40;99.90;;;;;;10300048;28;20270;-78
2023/11/25 05:46:25;;;;;;;4.03;2.27;;;5.30;99.90;;;;;;10294866;28;20625;-78
2023/11/25 05:51:33;;;;;;;3.50;2.60;;;5.30;99.90;;;;;;10295953;28;20239;-78
2023/11/25 05:56:37;;;;;;;3.23;2.73;;;5.30;99.90;;;;;;10295233;28;20227;-78
2023/11/25 06:01:40;;;;;;;3.70;2.70;;;5.30;99.90;;;;;;10295702;28;20716;-78
2023/11/25 06:06:42;;;;;;;4.20;2.30;;;5.30;99.90;;;;;;10303022;28;20223;-78
2023/11/25 06:11:46;;;;;;;5.07;2.87;;;5.30;99.90;;;;;;10305715;28;20207;-78
2023/11/25 06:16:48;;;;;;;4.03;2.50;;;5.40;99.90;;;;;;10296011;28;20685;-78
2023/11/25 06:21:50;;;;;;;3.17;2.87;;;5.40;99.90;;;;;;10296330;28;20227;-78
2023/11/25 06:26:54;;;;;;;4.00;3.20;;;5.40;99.90;;;;;;10295949;28;20251;-78
2023/11/25 06:31:57;;;;;;;4.73;2.60;;;5.40;99.90;;;;;;10295056;28;20204;-78
2023/11/25 06:36:59;;;;;;;5.00;2.40;;;5.50;99.90;;;;;;10290940;28;20212;-78
2023/11/25 06:42:07;;;;;;;5.33;2.50;;;5.50;99.90;;;;;;10292519;28;20706;-78
2023/11/25 06:47:10;;;;;;;6.93;2.67;;;5.50;99.90;;;;;;10295572;28;20232;-78
2023/11/25 06:52:13;;;;;;;6.77;2.87;;;5.50;99.90;;;;;;10332126;28;20199;-78
2023/11/25 06:57:17;;;;;;;2.50;2.03;;;5.60;99.90;;;;;;10294787;28;20242;-78
2023/11/25 07:02:19;;;;;;;7.57;2.90;;;5.60;99.90;;;;;;10298709;28;20228;-78
2023/11/25 07:07:22;;;;;;;2.80;2.50;;;5.50;99.90;;;;;;10283328;28;20231;-77
2023/11/25 07:12:25;;;;;;;4.80;2.73;;;5.60;99.90;;;;;;10277893;28;20200;-77
2023/11/25 07:17:28;;;;;;;2.30;2.03;;;5.70;99.90;;;;;;10292764;28;20737;-77
2023/11/25 07:22:30;;;;;;;3.20;2.53;;;5.70;99.90;;;;;;10294755;28;20224;-77
2023/11/25 07:27:34;;;;;;;3.07;2.27;;;5.70;99.90;;;;;;10293880;28;20220;-77
2023/11/25 07:32:36;;;;;;;3.70;2.60;;;5.80;99.90;;;;;;10266472;28;20211;-77
2023/11/25 07:37:39;;;;;;;3.13;2.57;;;5.80;99.90;;;;;;10292118;28;20220;-77
2023/11/25 07:42:48;;;;;;;2.40;2.10;;;5.80;99.90;;;;;;10294901;28;20216;-78
2023/11/25 07:47:50;;;;;;;6.43;3.40;;;5.80;99.90;;;;;;10302220;28;20234;-78
2023/11/25 07:52:53;;;;;;;3.63;2.80;;;5.80;99.90;;;;;;10291533;28;20192;-78
2023/11/25 07:57:58;;;;;;;5.87;2.93;;;5.90;99.90;;;;;;10292794;28;20223;-78
2023/11/25 08:03:02;;;;;;;4.87;3.10;;;5.90;99.90;;;;;;10288292;28;20223;-78
2023/11/25 08:08:05;;;;;;;5.33;2.50;;;6.00;99.90;;;;;;10278669;28;20631;-77
2023/11/25 08:13:10;;;;;;;4.47;2.93;;;6.10;99.90;;;;;;10279104;28;20199;-78
2023/11/25 08:18:15;;;;;;;6.73;2.40;;;6.20;99.90;;;;;;10298672;28;20230;-77
2023/11/25 08:23:17;;;;;;;7.43;2.70;;;6.20;99.90;;;;;;10288932;28;20216;-77
2023/11/25 08:28:21;;;;;;;5.17;3.20;;;6.30;99.90;;;;;;10321176;28;20199;-76
2023/11/25 08:33:25;;;;;;;5.23;2.77;;;6.40;99.90;;;;;;10323537;28;20199;-78
2023/11/25 08:38:27;;;;;;;4.07;3.67;;;6.50;99.90;;;;;;10311524;28;20203;-78
2023/11/25 08:43:32;;;;;;;6.40;3.80;;;6.50;99.90;;;;;;10335741;28;20234;-78
2023/11/25 08:48:34;;;;;;;4.60;3.43;;;6.60;99.90;;;;;;10345723;28;20207;-77
2023/11/25 08:53:37;;;;;;;5.47;2.63;;;6.60;99.90;;;;;;10313932;28;20818;-78
2023/11/25 08:58:41;;;;;;;3.50;2.27;;;6.70;99.90;;;;;;10318441;28;20257;-78
2023/11/25 09:03:43;;;;;;;5.63;1.90;;;6.80;99.90;;;;;;10340228;28;20246;-79
2023/11/25 09:08:45;;;;;;;5.13;1.90;;;6.80;99.90;;;;;;10333534;28;20195;-79
2023/11/25 09:13:50;;;;;;;10.50;2.87;;;6.80;99.90;;;;;;10335162;28;20216;-78
2023/11/25 09:18:53;;;;;;;7.13;2.43;;;6.90;99.90;;;;;;10334302;28;20195;-79
2023/11/25 09:23:56;;;;;;;5.37;2.43;;;7.00;99.90;;;;;;10333952;28;20231;-79
2023/11/25 09:28:59;;;;;;;5.40;2.83;;;7.10;99.90;;;;;;10333984;28;20227;-79
2023/11/25 09:34:03;;;;;;;10.50;3.10;;;7.10;99.90;;;;;;10313770;28;20219;-79
2023/11/25 09:39:09;;;;;;;6.83;2.00;;;7.10;99.90;;;;;;10310250;28;20203;-78
2023/11/25 09:44:14;;;;;;;6.73;2.90;;;7.20;99.90;;;;;;10319317;28;20253;-78
2023/11/25 09:49:17;;;;;;;7.40;3.50;;;7.20;99.90;;;;;;10330360;28;20199;-78
2023/11/25 09:54:22;;;;;;;6.33;3.60;;;7.10;99.90;;;;;;10324149;28;20224;-78
2023/11/25 09:59:28;;;;;;;7.73;3.97;;;7.00;99.90;;;;;;10322365;28;20216;-78
2023/11/25 10:04:33;;;;;;;8.40;3.30;;;7.00;99.90;;;;;;10321595;28;20230;-78
2023/11/25 10:09:38;;;;;;;10.27;3.50;;;7.10;99.90;;;;;;10324119;28;20204;-78
2023/11/25 10:14:43;;;;;;;9.43;3.27;;;7.20;99.90;;;;;;10321927;28;20219;-78
2023/11/25 10:19:46;;;;;;;6.13;2.53;;;7.30;99.90;;;;;;10325519;28;20219;-78
2023/11/25 10:24:50;;;;;;;5.90;3.27;;;7.40;99.90;;;;;;10325412;28;20268;-78
2023/11/25 10:29:55;;;;;;;7.80;3.40;;;7.60;99.90;;;;;;10316718;28;20227;-78
2023/11/25 10:34:57;;;;;;;6.03;2.47;;;7.70;99.90;;;;;;10318647;28;20669;-77
2023/11/25 10:40:00;;;;;;;8.40;3.07;;;7.70;99.90;;;;;;10301163;28;20561;-77
2023/11/25 10:45:04;;;;;;;9.33;3.57;;;7.70;99.90;;;;;;10317444;28;20227;-78
2023/11/25 10:50:08;;;;;;;6.83;2.80;;;7.60;99.90;;;;;;10326957;28;20631;-77
2023/11/25 10:55:10;;;;;;;6.77;3.20;;;7.60;99.90;;;;;;10318020;28;20223;-77
2023/11/25 11:00:17;;;;;;;4.17;2.43;;;7.70;99.90;;;;;;10317061;28;20228;-78
2023/11/25 11:05:25;;;;;;;7.37;3.13;;;7.70;99.90;;;;;;10309773;28;20220;-78
2023/11/25 11:10:32;;;;;;;4.13;2.50;;;7.80;99.90;;;;;;10320698;28;20199;-78
2023/11/25 11:15:37;;;;;;;16.50;3.57;;;7.80;99.90;;;;;;10296783;28;20271;-76
2023/11/25 11:20:46;;;;;;;7.63;3.30;;;8.00;99.90;;;;;;10308936;28;20224;-78
2023/11/25 11:25:56;;;;;;;7.20;2.87;;;8.10;99.90;;;;;;10310902;28;20277;-78
2023/11/25 11:31:32;;;;;;;5.23;2.97;;;8.10;99.90;;;;;;10316513;28;20196;-78
2023/11/25 11:36:36;;;;;;;8.07;3.33;;;8.10;99.90;;;;;;10309219;28;20234;-78
2023/11/25 11:41:39;;;;;;;7.87;3.03;;;8.10;99.90;;;;;;10310617;28;20219;-78
2023/11/25 11:46:43;;;;;;;6.80;2.60;;;8.10;99.90;;;;;;10297895;28;20231;-78
2023/11/25 11:52:00;;;;;;;7.83;2.77;;;8.10;99.90;;;;;;10310466;28;20195;-78
2023/11/25 11:57:03;;;;;;;5.33;1.90;;;8.10;99.90;;;;;;10284486;28;20628;-78
2023/11/25 12:02:07;;;;;;;10.00;3.13;;;7.90;99.90;;;;;;10320408;28;20231;-77
2023/11/25 12:07:09;;;;;;;5.13;2.37;;;7.80;99.90;;;;;;10301314;28;20234;-78
2023/11/25 12:12:12;;;;;;;5.20;2.70;;;7.60;99.90;;;;;;10314199;28;20621;-78
2023/11/25 12:17:16;;;;;;;3.87;2.13;;;7.50;99.90;;;;;;10298663;28;20227;-77
2023/11/25 12:22:19;;;;;;;4.23;2.37;;;7.40;99.90;;;;;;10312907;28;20226;-78
2023/11/25 12:27:23;;;;;;;5.63;2.40;;;7.40;99.90;;;;;;10295672;28;20660;-78
2023/11/25 12:32:27;;;;;;;3.57;2.37;;;7.40;99.90;;;;;;10314559;28;20250;-77
2023/11/25 12:37:29;;;;;;;5.17;2.80;;;7.40;99.90;;;;;;10333167;28;20734;-78
2023/11/25 12:42:34;;;;;;;2.90;2.00;;;7.40;99.90;;;;;;10306471;28;20238;-77
2023/11/25 12:47:49;;;;;;;3.33;2.10;;;7.40;99.90;;;;;;10303602;28;20708;-77
2023/11/25 12:53:13;;;;;;;1.83;1.73;;;7.40;99.90;;;;;;10333189;28;20249;-78
2023/11/25 12:58:17;;;;;;;2.80;2.40;;;7.30;99.90;;;;;;10335147;28;20227;-77
2023/11/25 13:03:26;;;;;;;4.73;2.90;;;7.30;99.90;;;;;;10309359;28;20234;-77
2023/11/25 13:08:31;;;;;;;2.60;2.03;;;7.30;99.90;;;;;;10317294;28;20207;-78
2023/11/25 13:13:34;;;;;;;5.53;3.20;;;7.30;99.90;;;;;;10301089;28;20192;-77
2023/11/25 13:18:37;;;;;;;4.00;2.90;;;7.30;99.90;;;;;;10304347;28;20259;-78
2023/11/25 13:23:40;;;;;;;3.30;2.50;;;7.30;99.90;;;;;;10295928;28;20232;-77
2023/11/25 13:28:42;;;;;;;3.70;2.43;;;7.20;99.90;;;;;;10312448;28;20696;-77
2023/11/25 13:33:46;;;;;;;4.47;2.20;;;7.20;99.90;;;;;;10328499;28;20215;-76
2023/11/25 13:38:49;;;;;;;3.30;2.30;;;7.20;99.90;;;;;;10314388;28;20266;-77
2023/11/25 13:43:51;;;;;;;2.17;2.00;;;7.20;99.90;;;;;;10328834;28;20283;-78
2023/11/25 13:48:54;;;;;;;4.53;2.63;;;7.10;99.90;;;;;;10334195;28;20214;-79
2023/11/25 13:53:57;;;;;;;3.63;2.50;;;7.10;99.90;;;;;;10303040;28;20223;-78
2023/11/25 13:59:00;;;;;;;4.03;2.20;;;7.00;99.90;;;;;;10315151;28;20204;-78
2023/11/25 14:04:03;;;;;;;2.40;2.20;;;7.00;99.90;;;;;;10299882;28;20356;-78
2023/11/25 14:09:08;;;;;;;2.20;2.00;;;7.00;99.90;;;;;;10299940;28;20251;-78
2023/11/25 14:14:11;;;;;;;2.60;2.40;;;7.00;99.90;;;;;;10302128;28;20212;-79
2023/11/25 14:19:17;;;;;;;6.33;3.07;;;7.10;99.90;;;;;;10316222;28;20246;-79
2023/11/25 14:24:19;;;;;;;2.87;2.10;;;7.10;99.90;;;;;;10327697;28;20227;-77
2023/11/25 14:29:22;;;;;;;3.30;2.43;;;7.10;99.90;;;;;;10291870;28;20209;-77
2023/11/25 14:34:26;;;;;;;5.07;2.40;;;7.20;99.90;;;;;;10299088;28;20298;-79
2023/11/25 14:39:35;;;;;;;5.90;4.97;;;7.10;99.90;;;;;;10279526;28;20196;-79
2023/11/25 14:44:37;;;;;;;3.20;2.60;;;7.10;99.90;;;;;;10296705;28;20278;-79
2023/11/25 14:49:42;;;;;;;3.10;2.73;;;7.20;99.90;;;;;;10317750;28;20253;-79
2023/11/25 14:54:46;;;;;;;3.50;2.93;;;7.20;99.90;;;;;;10329568;28;20664;-78
2023/11/25 14:59:48;;;;;;;3.80;2.90;;;7.20;99.90;;;;;;10301222;28;20740;-77
2023/11/25 15:04:54;;;;;;;5.77;2.50;;;7.20;99.90;;;;;;10288877;28;20224;-78
2023/11/25 15:09:56;;;;;;;5.17;3.10;;;7.20;99.90;;;;;;10314406;28;20207;-76
2023/11/25 15:14:58;;;;;;;3.30;2.50;;;7.20;99.90;;;;;;10303650;28;20219;-79
2023/11/25 15:20:03;;;;;;;3.40;1.70;;;7.20;99.90;;;;;;10326530;28;20688;-78
2023/11/25 15:25:06;;;;;;;4.73;2.50;;;7.20;99.90;;;;;;10299236;28;20238;-78
2023/11/25 15:30:10;;;;;;;7.13;2.73;;;7.20;99.90;;;;;;10283073;28;20211;-79
2023/11/25 15:35:14;;;;;;;2.13;1.93;;;7.20;99.90;;;;;;10299701;28;20219;-78
2023/11/25 15:40:17;;;;;;;3.57;2.33;;;7.10;99.90;;;;;;10299957;28;21156;-78
2023/11/25 15:45:19;;;;;;;2.83;2.60;;;7.10;99.90;;;;;;10281410;28;20269;-79
2023/11/25 15:50:23;;;;;;;2.10;2.00;;;7.00;99.90;;;;;;10312375;28;20293;-78
2023/11/25 15:55:26;;;;;;;3.93;1.97;;;7.00;99.90;;;;;;10301462;28;20344;-78
2023/11/25 16:00:28;;;;;;;3.10;2.20;;;7.00;99.90;;;;;;10298152;28;20192;-79
2023/11/25 16:05:32;;;;;;;2.13;1.90;;;7.00;99.90;;;;;;10279087;28;20599;-79
2023/11/25 16:10:34;;;;;;;17.67;12.20;;;7.00;99.90;;;;;;10297987;28;20615;-79
2023/11/25 16:15:37;;;;;;;91.07;61.53;;;7.00;99.90;;;;;;10294510;28;20731;-79
2023/11/25 16:20:42;;;;;;;403.00;210.47;;;7.00;99.90;;;;;;10277801;28;20195;-78
2023/11/25 16:25:44;;;;;;;56.60;39.90;;;6.90;99.90;;;;;;10296535;28;20228;-79
2023/11/25 16:30:47;;;;;;;5.30;3.13;;;7.00;99.90;;;;;;10293581;28;20563;-79
2023/11/25 16:35:50;;;;;;;2.10;1.97;;;7.00;99.90;;;;;;10284994;28;20326;-78
2023/11/25 16:40:53;;;;;;;2.63;2.40;;;6.90;99.90;;;;;;10323553;28;20199;-78
2023/11/25 16:45:58;;;;;;;4.70;2.50;;;6.90;99.90;;;;;;10312983;28;20253;-79
2023/11/25 16:51:04;;;;;;;1.67;1.57;;;6.90;99.90;;;;;;10324222;28;20211;-79
2023/11/25 16:56:07;;;;;;;3.20;2.90;;;6.90;99.90;;;;;;10295394;28;20207;-78
2023/11/25 17:01:10;;;;;;;3.07;2.77;;;6.90;99.90;;;;;;10331363;28;20203;-79
2023/11/25 17:06:13;;;;;;;2.80;2.60;;;6.90;99.90;;;;;;10338695;28;20719;-79
2023/11/25 17:11:16;;;;;;;4.20;2.80;;;6.90;99.90;;;;;;10331660;28;20211;-78
2023/11/25 17:16:20;;;;;;;2.03;1.87;;;6.90;99.90;;;;;;10331126;28;20274;-79
2023/11/25 17:21:23;;;;;;;3.47;2.40;;;6.90;99.90;;;;;;10337640;28;20207;-79
2023/11/25 17:26:26;;;;;;;3.30;3.00;;;6.90;99.90;;;;;;10324840;28;20646;-77
2023/11/25 17:31:28;;;;;;;3.23;2.83;;;6.90;99.90;;;;;;10299499;28;20211;-79
2023/11/25 17:36:32;;;;;;;4.30;3.17;;;6.90;99.90;;;;;;10322161;28;20623;-77
2023/11/25 17:41:35;;;;;;;2.83;2.53;;;6.90;99.90;;;;;;10320198;28;20238;-77
2023/11/25 17:46:41;;;;;;;4.43;2.47;;;6.90;99.90;;;;;;10309435;28;20717;-78
2023/11/25 17:51:45;;;;;;;4.07;2.50;;;6.90;99.90;;;;;;10305198;28;20696;-79
2023/11/25 17:56:47;;;;;;;6.30;5.70;;;6.90;99.90;;;;;;10291390;28;20211;-79
2023/11/25 18:01:50;;;;;;;3.30;3.00;;;6.90;99.90;;;;;;10311391;28;20716;-79
2023/11/25 18:06:53;;;;;;;2.90;2.70;;;7.00;99.90;;;;;;10310703;28;20688;-79
2023/11/25 18:11:56;;;;;;;1.90;1.80;;;7.00;99.90;;;;;;10292080;28;20211;-79
2023/11/25 18:16:58;;;;;;;2.83;2.67;;;7.00;99.90;;;;;;10309979;28;20228;-77
2023/11/25 18:22:02;;;;;;;2.93;2.70;;;7.00;99.90;;;;;;10311022;28;20223;-76
2023/11/25 18:27:05;;;;;;;2.60;2.40;;;7.10;99.90;;;;;;10290096;28;20223;-78
2023/11/25 18:32:08;;;;;;;2.93;2.73;;;7.00;99.90;;;;;;10311725;28;20211;-79
2023/11/25 18:37:12;;;;;;;4.03;2.60;;;7.10;99.90;;;;;;10310737;28;20772;-79
2023/11/25 18:42:14;;;;;;;3.40;3.10;;;7.10;99.90;;;;;;10294649;28;20274;-79
2023/11/25 18:47:17;;;;;;;4.47;4.07;;;7.10;99.90;;;;;;10308873;28;20231;-76
2023/11/25 18:52:20;;;;;;;4.17;3.07;;;7.00;99.90;;;;;;10311060;28;20267;-77
2023/11/25 18:57:23;;;;;;;4.80;3.27;;;7.00;99.90;;;;;;10308785;28;20251;-77
2023/11/25 19:02:25;;;;;;;3.43;2.60;;;7.00;99.90;;;;;;10298397;28;20223;-77
2023/11/25 19:07:30;;;;;;;5.93;2.83;;;6.90;99.90;;;;;;10290051;28;20227;-77
2023/11/25 19:12:34;;;;;;;3.63;2.87;;;6.90;99.90;;;;;;10278942;28;20195;-76
2023/11/25 19:17:38;;;;;;;3.57;2.70;;;6.90;99.90;;;;;;10318594;28;20235;-76
2023/11/25 19:22:42;;;;;;;6.37;3.43;;;6.80;99.90;;;;;;10312149;28;20293;-77
2023/11/25 19:27:44;;;;;;;3.93;3.50;;;6.70;99.90;;;;;;10304975;28;20223;-77
2023/11/25 19:32:46;;;;;;;3.07;2.77;;;6.60;99.90;;;;;;10309645;28;20274;-77
2023/11/25 19:37:50;;;;;;;19.10;15.43;;;6.50;99.90;;;;;;10306335;28;20237;-77
2023/11/25 19:42:53;;;;;;;2.93;2.50;;;6.40;99.90;;;;;;10308889;28;20215;-78
2023/11/25 19:47:55;;;;;;;3.20;3.00;;;6.40;99.90;;;;;;10291804;28;20252;-76
2023/11/25 19:52:59;;;;;;;3.40;2.03;;;6.30;99.90;;;;;;10308958;28;20187;-78
2023/11/25 19:58:01;;;;;;;2.87;2.67;;;6.30;99.90;;;;;;10308784;28;20291;-78
2023/11/25 20:03:04;;;;;;;3.57;3.30;;;6.30;99.90;;;;;;10309496;28;20705;-77
2023/11/25 20:08:08;;;;;;;3.57;3.27;;;6.30;99.90;;;;;;10306627;28;20263;-79
2023/11/25 20:13:10;;;;;;;7.70;6.63;;;6.30;99.90;;;;;;10319029;28;20206;-79
2023/11/25 20:18:13;;;;;;;4.80;3.87;;;6.30;99.90;;;;;;10328472;28;20252;-78
2023/11/25 20:23:17;;;;;;;4.37;3.03;;;6.40;99.90;;;;;;10319179;28;20215;-79
2023/11/25 20:28:19;;;;;;;7.83;4.03;;;6.40;99.90;;;;;;10324475;28;20215;-79
2023/11/25 20:33:22;;;;;;;7.47;4.80;;;6.40;99.90;;;;;;10325687;28;20539;-79
2023/11/25 20:38:26;;;;;;;5.20;3.83;;;6.40;99.90;;;;;;10325881;28;20218;-78
2023/11/25 20:43:28;;;;;;;4.70;4.40;;;6.40;99.90;;;;;;10307509;28;20259;-79
2023/11/25 20:48:31;;;;;;;5.97;5.30;;;6.30;99.90;;;;;;10324087;28;20685;-78
2023/11/25 20:53:34;;;;;;;6.10;4.77;;;6.20;99.90;;;;;;10312946;28;20196;-79
2023/11/25 20:58:37;;;;;;;5.53;5.03;;;6.20;99.90;;;;;;10297367;28;20282;-79
2023/11/25 21:03:39;;;;;;;6.83;5.93;;;6.10;99.90;;;;;;10337134;23;20223;-76
2023/11/25 21:08:44;;;;;;;27.17;22.80;;;6.10;99.90;;;;;;10308078;28;20203;-75
2023/11/25 21:13:46;;;;;;;7.57;6.87;;;6.10;99.90;;;;;;10297456;28;20224;-76
2023/11/25 21:18:49;;;;;;;7.03;5.00;;;6.20;99.90;;;;;;10322287;28;20203;-75
2023/11/25 21:23:53;;;;;;;6.67;5.43;;;6.20;99.90;;;;;;10313871;28;20571;-76
2023/11/25 21:28:55;;;;;;;6.33;5.40;;;6.20;99.90;;;;;;10321592;28;20208;-76
2023/11/25 21:33:57;;;;;;;5.83;5.33;;;6.30;99.90;;;;;;10309646;28;20219;-76
2023/11/25 21:39:03;;;;;;;6.43;4.27;;;6.30;99.90;;;;;;10280588;28;20624;-76
2023/11/25 21:44:06;;;;;;;7.07;4.70;;;6.30;99.90;;;;;;10314660;28;20220;-76
2023/11/25 21:49:08;;;;;;;5.30;4.80;;;6.30;99.90;;;;;;10301834;28;20208;-76
2023/11/25 21:54:12;;;;;;;4.20;3.90;;;6.30;99.90;;;;;;10315551;28;20220;-76
2023/11/25 21:59:15;;;;;;;5.93;5.37;;;6.40;99.90;;;;;;10314898;28;20727;-76
2023/11/25 22:04:17;;;;;;;5.37;4.97;;;6.30;99.90;;;;;;10327687;28;20735;-76
2023/11/25 22:09:21;;;;;;;4.27;3.97;;;6.30;99.90;;;;;;10304915;28;20489;-76
2023/11/25 22:14:23;;;;;;;6.50;5.30;;;6.40;99.90;;;;;;10320779;28;20223;-76
2023/11/25 22:19:26;;;;;;;6.50;5.77;;;6.40;99.90;;;;;;10307378;28;20266;-76
2023/11/25 22:24:30;;;;;;;7.27;6.07;;;6.30;99.90;;;;;;10321791;28;20223;-76
2023/11/25 22:29:32;;;;;;;5.97;4.87;;;6.30;99.90;;;;;;10306248;28;20203;-76
2023/11/25 22:34:34;;;;;;;5.87;5.40;;;6.40;99.90;;;;;;10326304;28;20226;-76
2023/11/25 22:39:38;;;;;;;5.87;5.10;;;6.50;99.90;;;;;;10305301;28;20207;-77
2023/11/25 22:44:40;;;;;;;5.93;5.43;;;6.40;99.90;;;;;;10316201;28;20231;-77
2023/11/25 22:49:43;;;;;;;5.03;4.73;;;6.50;99.90;;;;;;10307928;28;20209;-77
2023/11/25 22:54:46;;;;;;;5.20;4.83;;;6.40;99.90;;;;;;10308244;28;20290;-76
2023/11/25 22:59:52;;;;;;;3.83;3.53;;;6.30;99.90;;;;;;10301149;28;20254;-77
2023/11/25 23:04:54;;;;;;;3.80;3.60;;;6.20;99.90;;;;;;10317195;28;20223;-76
2023/11/25 23:09:58;;;;;;;4.40;4.20;;;6.10;99.90;;;;;;10284639;28;20215;-76
2023/11/25 23:15:01;;;;;;;4.87;4.17;;;6.00;99.90;;;;;;10303643;28;20224;-76
2023/11/25 23:20:10;;;;;;;4.90;4.50;;;6.00;99.90;;;;;;10286008;28;20602;-76
2023/11/25 23:25:14;;;;;;;4.50;4.30;;;6.00;99.90;;;;;;10298555;28;20266;-76
2023/11/25 23:30:18;;;;;;;4.10;3.80;;;5.80;99.90;;;;;;10307966;28;21215;-76
2023/11/25 23:35:20;;;;;;;6.17;4.80;;;5.80;99.90;;;;;;10315343;28;20231;-76
2023/11/25 23:40:24;;;;;;;4.87;4.40;;;5.80;99.90;;;;;;10287645;28;20202;-76
2023/11/25 23:45:27;;;;;;;4.33;4.03;;;5.70;99.90;;;;;;10286454;28;20637;-76
2023/11/25 23:50:30;;;;;;;4.97;4.57;;;5.70;99.90;;;;;;10289465;28;20668;-76
2023/11/25 23:55:33;;;;;;;5.07;4.77;;;5.70;99.90;;;;;;10299407;28;20220;-77
